Time;durP1;ratioP1;P1;durP2;ratioP2;P2;SDS_P1;SDS_P2;PMS_P1;PMS_P2;Temp;Humidity;BMP_temperature;BMP_pressure;BME280_temperature;BME280_humidity;BME280_pressure;Samples;Min_cycle;Max_cycle;Signal;HPM_P1;HPM_P2
2022/05/09 00:00:08;;;;;;;12.23;5.72;;;;;;;;;;5028768;28;20431;-78
2022/05/09 00:02:34;;;;;;;15.57;5.65;;;;;;;;;;5018149;28;20428;-79
2022/05/09 00:05:01;;;;;;;8.77;4.60;;;;;;;;;;5019367;28;20544;-80
2022/05/09 00:07:28;;;;;;;12.57;4.97;;;;;;;;;;5020585;28;20432;-79
2022/05/09 00:09:55;;;;;;;12.68;5.20;;;;;;;;;;5019025;28;20443;-80
2022/05/09 00:12:21;;;;;;;11.82;5.45;;;;;;;;;;5025890;28;20504;-80
2022/05/09 00:14:47;;;;;;;10.57;4.73;;;;;;;;;;5022335;28;20431;-78
2022/05/09 00:17:13;;;;;;;14.80;5.78;;;;;;;;;;5026271;28;20471;-80
2022/05/09 00:19:40;;;;;;;11.77;5.10;;;;;;;;;;5024265;28;20485;-79
2022/05/09 00:22:06;;;;;;;14.32;5.05;;;;;;;;;;5017704;28;20425;-79
2022/05/09 00:24:34;;;;;;;13.00;5.43;;;;;;;;;;5016932;28;20477;-79
2022/05/09 00:27:00;;;;;;;11.70;4.85;;;;;;;;;;5018546;28;20802;-79
2022/05/09 00:29:26;;;;;;;11.73;5.20;;;;;;;;;;5022818;28;20780;-79
2022/05/09 00:31:55;;;;;;;14.02;5.50;;;;;;;;;;5023758;28;20498;-79
2022/05/09 00:34:22;;;;;;;9.60;4.68;;;;;;;;;;5022067;28;20440;-79
2022/05/09 00:36:49;;;;;;;11.88;5.40;;;;;;;;;;5020870;28;20454;-79
2022/05/09 00:39:15;;;;;;;12.55;5.40;;;;;;;;;;5024289;28;20487;-80
2022/05/09 00:41:43;;;;;;;12.10;5.10;;;;;;;;;;5020136;28;20421;-80
2022/05/09 00:44:10;;;;;;;10.20;4.90;;;;;;;;;;5020094;28;20830;-79
2022/05/09 00:46:37;;;;;;;12.07;4.82;;;;;;;;;;5018730;28;20475;-80
2022/05/09 00:49:06;;;;;;;14.80;5.40;;;;;;;;;;5021433;28;20522;-79
2022/05/09 00:51:33;;;;;;;12.98;4.90;;;;;;;;;;5021871;28;20945;-79
2022/05/09 00:54:02;;;;;;;8.82;4.60;;;;;;;;;;5020521;28;20432;-80
2022/05/09 00:56:30;;;;;;;10.52;4.70;;;;;;;;;;5024669;28;20450;-80
2022/05/09 00:58:59;;;;;;;13.02;5.30;;;;;;;;;;5018920;28;21079;-79
2022/05/09 01:01:26;;;;;;;9.65;4.97;;;;;;;;;;5020587;28;20420;-79
2022/05/09 01:03:54;;;;;;;13.02;5.68;;;;;;;;;;5020134;28;20436;-79
2022/05/09 01:06:20;;;;;;;12.90;4.65;;;;;;;;;;5025006;28;20844;-79
2022/05/09 01:08:46;;;;;;;13.10;5.15;;;;;;;;;;5022208;28;20437;-78
2022/05/09 01:11:17;;;;;;;14.68;5.55;;;;;;;;;;5022287;28;20419;-79
2022/05/09 01:13:44;;;;;;;10.55;5.20;;;;;;;;;;5020425;28;20428;-79
2022/05/09 01:16:12;;;;;;;15.23;6.10;;;;;;;;;;5023372;28;20828;-79
2022/05/09 01:18:39;;;;;;;12.77;5.10;;;;;;;;;;5020588;28;20830;-80
2022/05/09 01:21:27;;;;;;;10.60;4.90;;;;;;;;;;5019869;28;20467;-79
2022/05/09 01:23:54;;;;;;;15.57;5.80;;;;;;;;;;5021806;28;20416;-80
2022/05/09 01:26:20;;;;;;;13.30;6.38;;;;;;;;;;5022105;28;20419;-79
2022/05/09 01:28:46;;;;;;;12.32;5.70;;;;;;;;;;5020990;28;20475;-81
2022/05/09 01:31:15;;;;;;;10.43;5.60;;;;;;;;;;5019705;28;20420;-79
2022/05/09 01:33:44;;;;;;;16.23;6.00;;;;;;;;;;5018560;28;20436;-80
2022/05/09 01:36:13;;;;;;;15.95;5.45;;;;;;;;;;5019027;28;20432;-79
2022/05/09 01:38:42;;;;;;;12.82;5.90;;;;;;;;;;5017187;28;20428;-79
2022/05/09 01:41:08;;;;;;;11.52;5.90;;;;;;;;;;5016961;28;20471;-79
2022/05/09 01:43:36;;;;;;;12.95;5.90;;;;;;;;;;5020501;28;20866;-79
2022/05/09 01:46:02;;;;;;;13.85;5.70;;;;;;;;;;5019525;28;20485;-79
2022/05/09 01:51:09;;;;;;;11.43;4.80;;;;;;;;;;4974668;28;20412;-79
2022/05/09 01:53:37;;;;;;;15.13;5.40;;;;;;;;;;5015635;28;20444;-80
2022/05/09 01:56:03;;;;;;;11.70;4.93;;;;;;;;;;5021688;28;20426;-79
2022/05/09 01:58:29;;;;;;;11.75;5.90;;;;;;;;;;5018447;28;20430;-79
2022/05/09 02:00:55;;;;;;;10.65;5.20;;;;;;;;;;5023427;28;20408;-79
2022/05/09 02:03:22;;;;;;;12.63;5.28;;;;;;;;;;5022955;28;20480;-79
2022/05/09 02:05:48;;;;;;;11.55;4.85;;;;;;;;;;5020989;28;20432;-79
2022/05/09 02:08:14;;;;;;;14.50;5.50;;;;;;;;;;5016902;28;20491;-79
2022/05/09 02:10:42;;;;;;;9.35;5.20;;;;;;;;;;5032000;23;20474;-85
2022/05/09 02:13:09;;;;;;;11.68;5.63;;;;;;;;;;5027730;28;20473;-84
2022/05/09 02:15:35;;;;;;;11.23;5.30;;;;;;;;;;5025045;28;20951;-83
2022/05/09 02:18:01;;;;;;;11.70;5.75;;;;;;;;;;5027463;28;20431;-84
2022/05/09 02:20:28;;;;;;;10.85;5.50;;;;;;;;;;5023703;28;20432;-84
2022/05/09 02:22:54;;;;;;;14.30;5.70;;;;;;;;;;5010332;28;20488;-87
2022/05/09 02:25:30;;;;;;;10.82;5.65;;;;;;;;;;5012139;28;20436;-83
2022/05/09 02:27:58;;;;;;;8.18;4.93;;;;;;;;;;5009398;28;20421;-83
2022/05/09 02:30:24;;;;;;;15.23;5.80;;;;;;;;;;5010930;28;20470;-84
2022/05/09 02:32:51;;;;;;;12.18;5.82;;;;;;;;;;5009566;28;20459;-83
2022/05/09 02:35:18;;;;;;;11.48;5.90;;;;;;;;;;5008249;28;20900;-83
2022/05/09 02:37:45;;;;;;;11.50;6.07;;;;;;;;;;5012399;28;20488;-84
2022/05/09 02:40:11;;;;;;;11.30;5.60;;;;;;;;;;5013307;28;20528;-83
2022/05/09 02:42:37;;;;;;;11.65;5.00;;;;;;;;;;5012670;28;20431;-83
2022/05/09 02:45:07;;;;;;;9.32;5.22;;;;;;;;;;5013691;28;21163;-83
2022/05/09 02:47:33;;;;;;;14.10;5.78;;;;;;;;;;5013510;28;20812;-83
2022/05/09 02:49:59;;;;;;;10.50;5.45;;;;;;;;;;5013430;28;20438;-84
2022/05/09 02:52:26;;;;;;;12.73;5.28;;;;;;;;;;5012096;28;20421;-83
2022/05/09 02:54:52;;;;;;;10.20;5.63;;;;;;;;;;5012979;28;20937;-83
2022/05/09 02:57:19;;;;;;;13.20;6.07;;;;;;;;;;5011684;28;20449;-83
2022/05/09 02:59:45;;;;;;;11.10;5.23;;;;;;;;;;5013088;28;20443;-84
2022/05/09 03:02:12;;;;;;;8.27;4.53;;;;;;;;;;5012945;28;20428;-85
2022/05/09 03:04:41;;;;;;;7.43;5.07;;;;;;;;;;5012548;28;20429;-83
2022/05/09 03:07:07;;;;;;;10.70;4.80;;;;;;;;;;5014487;28;20569;-83
2022/05/09 03:09:34;;;;;;;10.53;4.70;;;;;;;;;;5007095;28;21062;-84
2022/05/09 03:12:00;;;;;;;9.43;5.20;;;;;;;;;;5009037;28;20436;-84
2022/05/09 03:14:27;;;;;;;6.90;4.70;;;;;;;;;;5008449;28;20452;-83
2022/05/09 03:16:53;;;;;;;8.40;4.20;;;;;;;;;;5009710;28;20432;-84
2022/05/09 03:19:21;;;;;;;8.50;4.50;;;;;;;;;;5007288;28;20429;-84
2022/05/09 03:21:48;;;;;;;11.15;4.60;;;;;;;;;;4998288;28;20424;-83
2022/05/09 03:24:14;;;;;;;8.90;5.23;;;;;;;;;;4988038;28;20436;-86
2022/05/09 03:26:41;;;;;;;8.93;4.90;;;;;;;;;;4988521;28;20451;-84
2022/05/09 03:29:07;;;;;;;9.20;5.10;;;;;;;;;;4987438;28;20432;-84
2022/05/09 03:31:33;;;;;;;11.70;5.10;;;;;;;;;;4986713;28;20494;-84
2022/05/09 03:33:59;;;;;;;14.18;5.43;;;;;;;;;;4987725;28;20492;-87
2022/05/09 03:36:27;;;;;;;12.53;5.10;;;;;;;;;;4988195;28;20491;-83
2022/05/09 03:38:53;;;;;;;9.63;4.95;;;;;;;;;;4992862;28;20428;-84
2022/05/09 03:41:20;;;;;;;10.95;4.60;;;;;;;;;;4992408;28;20839;-84
2022/05/09 03:43:46;;;;;;;9.80;4.63;;;;;;;;;;4992701;28;20424;-84
2022/05/09 03:46:13;;;;;;;10.75;5.40;;;;;;;;;;4991504;28;20418;-84
2022/05/09 03:48:39;;;;;;;12.32;5.40;;;;;;;;;;4992858;28;20416;-84
2022/05/09 03:51:05;;;;;;;10.80;5.40;;;;;;;;;;4989835;28;20427;-84
2022/05/09 03:53:33;;;;;;;11.63;5.40;;;;;;;;;;4992757;28;20476;-85
2022/05/09 03:56:00;;;;;;;12.80;5.50;;;;;;;;;;4991863;28;20418;-84
2022/05/09 03:58:26;;;;;;;9.43;5.30;;;;;;;;;;4991638;28;20501;-84
2022/05/09 04:00:53;;;;;;;9.40;4.95;;;;;;;;;;4989255;28;20423;-84
2022/05/09 04:03:20;;;;;;;8.82;5.72;;;;;;;;;;4992757;28;20824;-84
2022/05/09 04:05:46;;;;;;;9.35;4.90;;;;;;;;;;4992588;28;20502;-83
2022/05/09 04:08:16;;;;;;;11.07;5.72;;;;;;;;;;4989609;28;20438;-83
2022/05/09 04:10:44;;;;;;;11.38;5.55;;;;;;;;;;4990113;28;20411;-84
2022/05/09 04:13:10;;;;;;;12.52;6.05;;;;;;;;;;4989265;28;20420;-84
2022/05/09 04:18:21;;;;;;;13.20;5.53;;;;;;;;;;4990982;28;20431;-83
2022/05/09 04:20:48;;;;;;;8.80;5.45;;;;;;;;;;4988647;28;20460;-85
2022/05/09 04:23:15;;;;;;;11.82;6.20;;;;;;;;;;5009302;28;20491;-84
2022/05/09 04:25:42;;;;;;;11.90;5.78;;;;;;;;;;5006500;28;20523;-83
2022/05/09 04:28:10;;;;;;;14.02;6.93;;;;;;;;;;5007901;28;20438;-84
2022/05/09 04:30:38;;;;;;;10.25;5.35;;;;;;;;;;5006596;28;20430;-84
2022/05/09 04:33:05;;;;;;;9.70;5.97;;;;;;;;;;5006284;28;20456;-84
2022/05/09 04:35:32;;;;;;;16.40;6.57;;;;;;;;;;5003563;28;20510;-83
2022/05/09 04:37:59;;;;;;;9.63;5.57;;;;;;;;;;5009143;28;20440;-83
2022/05/09 04:40:26;;;;;;;14.00;6.75;;;;;;;;;;5004315;28;20459;-84
2022/05/09 04:42:52;;;;;;;14.37;7.30;;;;;;;;;;4987981;28;20459;-83
2022/05/09 04:45:20;;;;;;;13.52;6.82;;;;;;;;;;4989063;28;20488;-85
2022/05/09 04:47:49;;;;;;;15.88;6.85;;;;;;;;;;4988786;28;20434;-83
2022/05/09 04:50:16;;;;;;;17.42;7.80;;;;;;;;;;4986788;28;20522;-83
2022/05/09 04:52:42;;;;;;;16.92;7.45;;;;;;;;;;4988262;28;20525;-83
2022/05/09 04:55:09;;;;;;;13.93;7.28;;;;;;;;;;4988288;28;20436;-83
2022/05/09 04:57:36;;;;;;;14.20;7.82;;;;;;;;;;4986008;28;20435;-83
2022/05/09 05:00:02;;;;;;;15.10;7.10;;;;;;;;;;4983051;28;20502;-84
2022/05/09 05:02:30;;;;;;;13.32;7.25;;;;;;;;;;4987019;28;20473;-84
2022/05/09 05:04:56;;;;;;;11.90;7.78;;;;;;;;;;4987599;28;20456;-83
2022/05/09 05:07:23;;;;;;;16.93;8.17;;;;;;;;;;4989609;28;20527;-84
2022/05/09 05:09:49;;;;;;;16.48;8.48;;;;;;;;;;4988523;28;20465;-83
2022/05/09 05:12:15;;;;;;;14.50;7.93;;;;;;;;;;4986126;28;20454;-84
2022/05/09 05:14:41;;;;;;;16.58;8.30;;;;;;;;;;4985119;28;20438;-83
2022/05/09 05:17:08;;;;;;;13.27;8.50;;;;;;;;;;4980987;28;20431;-84
2022/05/09 05:19:36;;;;;;;19.52;9.20;;;;;;;;;;4979127;28;20442;-84
2022/05/09 05:22:03;;;;;;;15.55;7.93;;;;;;;;;;4980618;28;20436;-83
2022/05/09 05:24:32;;;;;;;17.17;8.80;;;;;;;;;;4981293;28;20434;-84
2022/05/09 05:26:59;;;;;;;16.17;8.53;;;;;;;;;;4982080;28;20527;-83
2022/05/09 05:29:25;;;;;;;17.23;8.77;;;;;;;;;;4979061;28;21030;-84
2022/05/09 05:31:51;;;;;;;15.55;8.50;;;;;;;;;;4981884;28;20832;-84
2022/05/09 05:34:17;;;;;;;18.27;8.50;;;;;;;;;;4979229;28;20855;-84
2022/05/09 05:36:45;;;;;;;14.48;8.00;;;;;;;;;;4977301;28;20434;-85
2022/05/09 05:39:15;;;;;;;13.60;7.90;;;;;;;;;;4979192;28;20452;-84
2022/05/09 05:41:41;;;;;;;13.50;6.90;;;;;;;;;;4977403;28;20433;-83
2022/05/09 05:44:11;;;;;;;17.27;8.25;;;;;;;;;;4981731;28;20438;-83
2022/05/09 05:46:37;;;;;;;13.30;7.68;;;;;;;;;;4982795;28;20436;-82
2022/05/09 05:49:04;;;;;;;17.35;7.50;;;;;;;;;;4979805;28;20446;-84
2022/05/09 05:51:30;;;;;;;11.93;6.70;;;;;;;;;;4981811;28;20422;-83
2022/05/09 05:53:58;;;;;;;13.25;6.68;;;;;;;;;;4982760;28;20468;-84
2022/05/09 05:56:25;;;;;;;11.00;6.55;;;;;;;;;;4981949;28;20465;-85
2022/05/09 05:58:51;;;;;;;11.52;6.57;;;;;;;;;;4981883;28;20494;-84
2022/05/09 06:01:18;;;;;;;12.43;6.30;;;;;;;;;;4988417;28;20766;-84
2022/05/09 06:03:45;;;;;;;14.48;7.05;;;;;;;;;;5003818;28;20429;-83
2022/05/09 06:06:13;;;;;;;14.10;6.53;;;;;;;;;;4999917;28;20426;-84
2022/05/09 06:08:40;;;;;;;13.10;6.10;;;;;;;;;;5000660;28;20436;-82
2022/05/09 06:11:08;;;;;;;13.23;5.70;;;;;;;;;;5002339;28;20426;-84
2022/05/09 06:13:34;;;;;;;7.40;5.55;;;;;;;;;;5006373;28;20440;-83
2022/05/09 06:16:01;;;;;;;13.57;6.20;;;;;;;;;;5007469;28;20418;-83
2022/05/09 06:18:27;;;;;;;15.57;5.80;;;;;;;;;;5004808;28;20498;-84
2022/05/09 06:20:53;;;;;;;11.17;5.90;;;;;;;;;;5006037;28;20504;-84
2022/05/09 06:23:20;;;;;;;18.52;6.30;;;;;;;;;;5010004;28;20947;-83
2022/05/09 06:25:48;;;;;;;12.55;5.90;;;;;;;;;;5008519;28;20417;-84
2022/05/09 06:28:17;;;;;;;12.07;5.28;;;;;;;;;;5007173;28;20442;-84
2022/05/09 06:30:44;;;;;;;12.85;5.47;;;;;;;;;;5006818;28;20512;-86
2022/05/09 06:33:10;;;;;;;10.20;5.03;;;;;;;;;;5010405;28;20472;-84
2022/05/09 06:35:39;;;;;;;10.10;5.20;;;;;;;;;;5006471;28;20434;-85
2022/05/09 06:38:06;;;;;;;10.05;5.03;;;;;;;;;;5009108;28;20479;-84
2022/05/09 06:40:33;;;;;;;17.08;5.47;;;;;;;;;;5008315;28;20434;-84
2022/05/09 06:42:59;;;;;;;14.75;5.28;;;;;;;;;;5007900;28;20426;-86
2022/05/09 06:45:27;;;;;;;12.73;4.60;;;;;;;;;;5009754;28;20422;-84
2022/05/09 06:47:54;;;;;;;9.85;5.60;;;;;;;;;;5007447;28;20931;-85
2022/05/09 06:50:22;;;;;;;13.30;5.13;;;;;;;;;;5006943;28;20991;-84
2022/05/09 06:52:48;;;;;;;10.30;5.60;;;;;;;;;;5005810;28;20483;-82
2022/05/09 06:55:14;;;;;;;12.35;5.50;;;;;;;;;;5008881;28;20470;-84
2022/05/09 06:57:41;;;;;;;10.23;5.60;;;;;;;;;;5007526;28;20430;-84
2022/05/09 07:00:09;;;;;;;10.60;5.50;;;;;;;;;;5006583;28;20814;-84
2022/05/09 07:02:37;;;;;;;10.93;5.43;;;;;;;;;;5008115;28;20424;-83
2022/05/09 07:05:04;;;;;;;9.35;5.53;;;;;;;;;;5007385;28;20490;-84
2022/05/09 07:07:30;;;;;;;13.38;7.05;;;;;;;;;;5006311;28;20964;-84
2022/05/09 07:09:56;;;;;;;13.65;6.30;;;;;;;;;;5005737;28;20438;-85
2022/05/09 07:12:22;;;;;;;12.15;5.82;;;;;;;;;;5006814;28;20439;-86
2022/05/09 07:14:49;;;;;;;12.52;6.00;;;;;;;;;;5007561;28;20471;-84
2022/05/09 07:17:15;;;;;;;11.52;6.90;;;;;;;;;;5006784;28;20496;-84
2022/05/09 07:19:43;;;;;;;12.07;6.00;;;;;;;;;;5007940;28;20421;-84
2022/05/09 07:22:09;;;;;;;12.73;6.25;;;;;;;;;;5006299;28;20424;-85
2022/05/09 07:24:35;;;;;;;12.40;6.67;;;;;;;;;;5004208;28;20422;-84
2022/05/09 07:27:02;;;;;;;15.73;7.82;;;;;;;;;;5002895;28;20976;-85
2022/05/09 07:29:28;;;;;;;13.45;7.10;;;;;;;;;;5003887;28;20418;-84
2022/05/09 07:31:54;;;;;;;15.82;7.40;;;;;;;;;;5002332;28;20432;-83
2022/05/09 07:34:20;;;;;;;16.63;7.97;;;;;;;;;;5004602;28;20416;-85
2022/05/09 07:36:48;;;;;;;15.15;7.00;;;;;;;;;;5004067;28;20429;-84
2022/05/09 07:39:14;;;;;;;11.68;7.25;;;;;;;;;;5003084;28;20430;-84
2022/05/09 07:41:42;;;;;;;13.00;6.73;;;;;;;;;;5002870;28;20483;-84
2022/05/09 07:44:08;;;;;;;12.15;8.00;;;;;;;;;;5005482;28;20461;-84
2022/05/09 07:46:34;;;;;;;14.25;8.20;;;;;;;;;;5004043;28;20428;-85
2022/05/09 07:49:01;;;;;;;9.27;6.43;;;;;;;;;;5002903;28;20989;-85
2022/05/09 07:51:27;;;;;;;12.68;7.30;;;;;;;;;;5003124;28;20445;-85
2022/05/09 07:53:55;;;;;;;12.38;5.80;;;;;;;;;;5004079;28;20465;-84
2022/05/09 07:56:21;;;;;;;13.70;6.65;;;;;;;;;;5001972;28;20423;-85
2022/05/09 07:58:47;;;;;;;12.90;6.43;;;;;;;;;;5002931;28;20425;-85
2022/05/09 08:01:13;;;;;;;13.40;6.00;;;;;;;;;;5000754;28;20426;-84
2022/05/09 08:03:40;;;;;;;14.75;6.20;;;;;;;;;;5003723;28;20414;-85
2022/05/09 08:06:06;;;;;;;16.00;7.60;;;;;;;;;;5001697;28;20504;-86
2022/05/09 08:08:36;;;;;;;15.20;7.30;;;;;;;;;;5000794;28;20436;-84
2022/05/09 08:11:04;;;;;;;10.15;5.80;;;;;;;;;;5019447;23;20416;-81
2022/05/09 08:13:32;;;;;;;9.40;5.43;;;;;;;;;;5027175;28;20415;-80
2022/05/09 08:15:59;;;;;;;12.40;5.28;;;;;;;;;;5027026;28;20472;-80
2022/05/09 08:18:26;;;;;;;13.70;5.18;;;;;;;;;;5027035;28;20498;-80
2022/05/09 08:20:55;;;;;;;9.65;4.50;;;;;;;;;;5023859;28;20405;-81
2022/05/09 08:23:22;;;;;;;9.18;5.05;;;;;;;;;;5023723;28;20420;-80
2022/05/09 08:25:50;;;;;;;9.45;4.30;;;;;;;;;;5013560;28;20959;-81
2022/05/09 08:28:18;;;;;;;7.77;4.90;;;;;;;;;;5023248;28;20481;-80
2022/05/09 08:30:44;;;;;;;9.52;4.60;;;;;;;;;;5025282;28;20420;-79
2022/05/09 08:33:14;;;;;;;11.93;4.85;;;;;;;;;;5026763;28;21065;-79
2022/05/09 08:35:41;;;;;;;10.43;4.65;;;;;;;;;;5024758;28;20475;-80
2022/05/09 08:38:07;;;;;;;7.97;4.13;;;;;;;;;;5021289;28;20500;-80
2022/05/09 08:40:35;;;;;;;10.40;4.63;;;;;;;;;;5025956;28;20451;-80
2022/05/09 08:43:06;;;;;;;10.93;4.70;;;;;;;;;;5024026;28;20433;-79
2022/05/09 08:45:34;;;;;;;15.43;5.40;;;;;;;;;;5027417;28;20417;-81
2022/05/09 08:48:10;;;;;;;13.07;5.60;;;;;;;;;;5022616;28;20504;-80
2022/05/09 08:50:42;;;;;;;15.50;5.50;;;;;;;;;;5024025;28;20468;-80
2022/05/09 08:53:10;;;;;;;11.27;5.32;;;;;;;;;;5024770;28;20418;-81
2022/05/09 08:55:38;;;;;;;9.95;5.32;;;;;;;;;;5021441;28;20432;-80
2022/05/09 08:58:12;;;;;;;9.73;5.05;;;;;;;;;;5025334;28;20420;-80
2022/05/09 09:00:40;;;;;;;10.40;4.70;;;;;;;;;;5022187;28;20244;-80
2022/05/09 09:03:13;;;;;;;8.00;3.57;;;;;;;;;;5027211;28;20462;-81
2022/05/09 09:05:41;;;;;;;10.50;4.43;;;;;;;;;;5024045;28;20454;-80
2022/05/09 09:08:12;;;;;;;12.13;4.53;;;;;;;;;;5026424;28;20442;-80
2022/05/09 09:10:40;;;;;;;7.47;4.07;;;;;;;;;;5021811;28;20471;-79
2022/05/09 09:13:14;;;;;;;10.70;4.80;;;;;;;;;;5026748;28;20504;-80
2022/05/09 09:15:47;;;;;;;10.13;3.80;;;;;;;;;;5026204;28;20460;-80
2022/05/09 09:18:19;;;;;;;13.90;4.40;;;;;;;;;;5027304;28;20469;-79
2022/05/09 09:20:53;;;;;;;9.00;4.00;;;;;;;;;;5025464;28;20454;-79
2022/05/09 09:23:24;;;;;;;9.27;3.80;;;;;;;;;;5023870;28;20508;-80
2022/05/09 09:25:59;;;;;;;8.63;3.73;;;;;;;;;;5025673;28;20436;-80
2022/05/09 09:28:28;;;;;;;8.17;3.20;;;;;;;;;;5021949;28;20491;-80
2022/05/09 09:30:56;;;;;;;13.10;4.30;;;;;;;;;;5027230;28;20476;-81
2022/05/09 09:33:22;;;;;;;9.70;4.60;;;;;;;;;;5028385;28;20427;-80
2022/05/09 09:35:51;;;;;;;9.30;3.93;;;;;;;;;;5027053;28;20536;-80
2022/05/09 09:38:27;;;;;;;11.13;4.07;;;;;;;;;;5023109;28;20472;-80
2022/05/09 09:40:53;;;;;;;9.40;3.87;;;;;;;;;;5026068;28;20460;-80
2022/05/09 09:43:20;;;;;;;9.23;3.80;;;;;;;;;;5024291;28;20514;-78
2022/05/09 09:45:50;;;;;;;7.43;3.03;;;;;;;;;;5025403;28;20480;-80
2022/05/09 09:48:20;;;;;;;7.93;3.63;;;;;;;;;;5025849;28;20470;-81
2022/05/09 09:50:54;;;;;;;9.97;3.40;;;;;;;;;;5023867;28;20442;-81
2022/05/09 09:53:30;;;;;;;6.97;3.07;;;;;;;;;;5025633;28;20905;-80
2022/05/09 09:56:00;;;;;;;8.73;3.80;;;;;;;;;;5025299;28;20453;-80
2022/05/09 09:58:28;;;;;;;9.73;3.87;;;;;;;;;;5026964;28;20442;-81
2022/05/09 10:01:02;;;;;;;6.17;2.73;;;;;;;;;;5019776;28;20457;-81
2022/05/09 10:03:31;;;;;;;5.07;3.00;;;;;;;;;;5025546;28;20484;-81
2022/05/09 10:05:57;;;;;;;9.63;3.80;;;;;;;;;;5027064;28;20473;-81
2022/05/09 10:08:26;;;;;;;10.73;3.60;;;;;;;;;;5026000;28;20524;-80
2022/05/09 10:10:57;;;;;;;15.43;3.27;;;;;;;;;;5023246;28;20524;-81
2022/05/09 10:13:23;;;;;;;9.90;3.33;;;;;;;;;;5027040;28;20471;-81
2022/05/09 10:16:01;;;;;;;6.47;3.10;;;;;;;;;;5023413;28;20555;-81
2022/05/09 10:18:31;;;;;;;9.63;4.03;;;;;;;;;;5023736;28;20464;-81
2022/05/09 10:21:00;;;;;;;8.43;2.83;;;;;;;;;;5026047;28;20482;-81
2022/05/09 10:26:19;;;;;;;8.17;3.30;;;;;;;;;;5026481;28;20475;-81
2022/05/09 10:28:46;;;;;;;8.20;3.13;;;;;;;;;;5025738;28;20427;-81
2022/05/09 10:31:20;;;;;;;12.67;3.97;;;;;;;;;;5022470;28;20485;-81
2022/05/09 10:33:50;;;;;;;8.50;3.40;;;;;;;;;;5024879;28;20480;-81
2022/05/09 10:36:22;;;;;;;11.17;3.33;;;;;;;;;;5024497;28;20476;-81
2022/05/09 10:38:50;;;;;;;8.00;2.90;;;;;;;;;;5022586;28;21437;-81
2022/05/09 10:41:22;;;;;;;10.70;3.33;;;;;;;;;;5023384;28;20993;-80
2022/05/09 10:43:53;;;;;;;11.97;3.67;;;;;;;;;;5023570;28;20492;-80
2022/05/09 10:46:21;;;;;;;9.90;3.17;;;;;;;;;;5026375;28;20473;-81
2022/05/09 10:48:50;;;;;;;6.50;2.80;;;;;;;;;;5023967;28;20518;-81
2022/05/09 10:51:19;;;;;;;4.87;2.90;;;;;;;;;;5021567;28;20856;-81
2022/05/09 10:53:53;;;;;;;8.60;2.93;;;;;;;;;;5021562;28;20460;-80
2022/05/09 10:56:21;;;;;;;11.13;3.23;;;;;;;;;;5025076;28;20485;-80
2022/05/09 10:58:51;;;;;;;7.60;3.90;;;;;;;;;;5028266;28;20491;-82
2022/05/09 11:01:20;;;;;;;10.43;3.30;;;;;;;;;;5028743;28;20477;-82
2022/05/09 11:03:47;;;;;;;5.87;2.60;;;;;;;;;;5023438;28;20481;-81
2022/05/09 11:06:27;;;;;;;5.20;2.77;;;;;;;;;;5029093;28;20474;-81
2022/05/09 11:09:01;;;;;;;10.13;3.10;;;;;;;;;;5023155;28;20531;-81
2022/05/09 11:11:30;;;;;;;4.90;3.00;;;;;;;;;;5027889;28;20464;-81
2022/05/09 11:13:59;;;;;;;5.00;2.80;;;;;;;;;;5029648;28;20436;-81
2022/05/09 11:16:30;;;;;;;7.93;3.77;;;;;;;;;;5026623;28;20466;-80
2022/05/09 11:19:04;;;;;;;10.47;2.77;;;;;;;;;;5027683;28;20463;-82
2022/05/09 11:21:35;;;;;;;9.23;3.00;;;;;;;;;;5025082;28;20476;-82
2022/05/09 11:24:07;;;;;;;6.23;3.10;;;;;;;;;;5027032;28;20488;-81
2022/05/09 11:26:38;;;;;;;5.47;2.60;;;;;;;;;;5016642;28;20492;-82
2022/05/09 11:29:10;;;;;;;7.67;3.00;;;;;;;;;;5026403;28;20469;-81
2022/05/09 11:31:36;;;;;;;;;;;;;;;;;;5027045;28;20291;-81
2022/05/09 11:34:02;;;;;;;;;;;;;;;;;;5024532;28;19921;-81
2022/05/09 11:36:28;;;;;;;;;;;;;;;;;;5028072;28;19921;-80
2022/05/09 11:38:54;;;;;;;;;;;;;;;;;;5017744;28;19925;-80
2022/05/09 11:41:20;;;;;;;;;;;;;;;;;;5026669;28;19928;-81
2022/05/09 11:43:46;;;;;;;;;;;;;;;;;;5026093;28;20430;-81
2022/05/09 11:46:12;;;;;;;;;;;;;;;;;;5027200;28;19925;-80
2022/05/09 11:48:38;;;;;;;;;;;;;;;;;;5025713;28;19921;-80
2022/05/09 11:51:05;;;;;;;;;;;;;;;;;;5025461;28;19922;-81
2022/05/09 11:53:31;;;;;;;;;;;;;;;;;;5021893;28;19925;-81
2022/05/09 11:55:57;;;;;;;;;;;;;;;;;;5023996;28;19921;-81
2022/05/09 11:58:24;;;;;;;;;;;;;;;;;;5025321;28;19933;-82
2022/05/09 12:00:50;;;;;;;;;;;;;;;;;;5025496;28;19968;-81
2022/05/09 12:03:17;;;;;;;;;;;;;;;;;;5025587;28;19971;-81
2022/05/09 12:05:43;;;;;;;;;;;;;;;;;;5024122;28;19949;-81
2022/05/09 12:08:09;;;;;;;;;;;;;;;;;;5020522;28;19925;-80
2022/05/09 12:10:36;;;;;;;;;;;;;;;;;;5025429;28;19921;-81
2022/05/09 12:13:04;;;;;;;;;;;;;;;;;;5023055;28;20368;-80
2022/05/09 12:15:30;;;;;;;;;;;;;;;;;;5024978;28;19937;-82
2022/05/09 12:17:57;;;;;;;;;;;;;;;;;;5023917;28;19971;-80
2022/05/09 12:20:26;;;;;;;;;;;;;;;;;;5024495;28;19925;-81
2022/05/09 12:22:52;;;;;;;;;;;;;;;;;;5019139;28;19991;-81
2022/05/09 12:25:19;;;;;;;;;;;;;;;;;;5024906;28;19925;-80
2022/05/09 12:27:45;;;;;;;;;;;;;;;;;;5023647;28;19971;-81
2022/05/09 12:30:11;;;;;;;;;;;;;;;;;;5020155;28;19925;-81
2022/05/09 12:32:38;;;;;;;;;;;;;;;;;;5023604;28;19921;-82
2022/05/09 12:35:07;;;;;;;;;;;;;;;;;;5023045;28;20411;-82
2022/05/09 12:37:33;;;;;;;;;;;;;;;;;;5020220;28;19961;-80
2022/05/09 12:40:00;;;;;;;;;;;;;;;;;;5022697;28;19928;-81
2022/05/09 12:42:26;;;;;;;;;;;;;;;;;;5026447;28;20028;-82
2022/05/09 12:44:52;;;;;;;;;;;;;;;;;;5025396;28;19968;-81
2022/05/09 12:47:18;;;;;;;;;;;;;;;;;;5024854;28;19925;-80
2022/05/09 12:49:44;;;;;;;;;;;;;;;;;;5025940;28;19921;-79
2022/05/09 12:52:10;;;;;;;;;;;;;;;;;;5021672;28;20346;-80
2022/05/09 12:54:39;;;;;;;;;;;;;;;;;;5026394;28;19925;-82
2022/05/09 12:57:05;;;;;;;;;;;;;;;;;;5024007;28;19921;-84
2022/05/09 12:59:32;;;;;;;;;;;;;;;;;;5027978;28;19922;-82
2022/05/09 13:01:58;;;;;;;;;;;;;;;;;;5026048;28;20359;-82
2022/05/09 13:04:25;;;;;;;;;;;;;;;;;;5027852;28;19921;-81
2022/05/09 13:06:51;;;;;;;;;;;;;;;;;;5026219;28;19927;-81
2022/05/09 13:09:17;;;;;;;;;;;;;;;;;;5027941;28;19945;-81
2022/05/09 13:11:44;;;;;;;;;;;;;;;;;;5028211;28;19925;-83
2022/05/09 13:14:10;;;;;;;;;;;;;;;;;;5029651;28;20000;-80
2022/05/09 13:16:36;;;;;;;;;;;;;;;;;;5027816;28;19921;-82
2022/05/09 13:19:02;;;;;;;;;;;;;;;;;;5026667;28;19949;-83
2022/05/09 13:21:28;;;;;;;;;;;;;;;;;;5024605;28;19929;-81
2022/05/09 13:23:56;;;;;;;;;;;;;;;;;;5026980;28;19921;-81
2022/05/09 13:26:22;;;;;;;;;;;;;;;;;;5028013;28;19921;-84
2022/05/09 13:28:49;;;;;;;;;;;;;;;;;;5027832;28;19921;-82
2022/05/09 13:31:15;;;;;;;;;;;;;;;;;;5026896;28;19925;-82
2022/05/09 13:33:41;;;;;;;;;;;;;;;;;;5029773;28;19931;-82
2022/05/09 13:36:07;;;;;;;;;;;;;;;;;;5020710;28;20255;-82
2022/05/09 13:38:33;;;;;;;;;;;;;;;;;;5027017;28;19978;-82
2022/05/09 13:40:59;;;;;;;;;;;;;;;;;;5026257;28;19975;-82
2022/05/09 13:43:26;;;;;;;;;;;;;;;;;;5027645;28;19932;-81
2022/05/09 13:45:53;;;;;;;;;;;;;;;;;;5025971;28;19929;-83
2022/05/09 13:48:20;;;;;;;;;;;;;;;;;;5025703;28;19925;-83
2022/05/09 13:50:46;;;;;;;;;;;;;;;;;;5022050;28;19921;-83
2022/05/09 13:53:12;;;;;;;;;;;;;;;;;;5027839;28;19925;-82
2022/05/09 13:55:38;;;;;;;;;;;;;;;;;;5025636;28;19921;-81
2022/05/09 13:58:05;;;;;;;;;;;;;;;;;;5023139;28;20315;-83
2022/05/09 14:00:31;;;;;;;;;;;;;;;;;;5027920;28;19949;-82
2022/05/09 14:02:57;;;;;;;;;;;;;;;;;;5026944;28;19924;-83
2022/05/09 14:05:23;;;;;;;;;;;;;;;;;;5023324;28;20353;-81
2022/05/09 14:07:49;;;;;;;;;;;;;;;;;;5022258;28;19948;-82
2022/05/09 14:10:16;;;;;;;;;;;;;;;;;;5019603;28;19936;-82
2022/05/09 14:12:42;;;;;;;;;;;;;;;;;;5023915;28;19921;-82
2022/05/09 14:15:08;;;;;;;;;;;;;;;;;;5028884;28;19921;-81
2022/05/09 14:17:34;;;;;;;;;;;;;;;;;;5029891;28;19929;-82
2022/05/09 14:20:01;;;;;;;;;;;;;;;;;;5022510;28;19921;-81
2022/05/09 14:22:27;;;;;;;;;;;;;;;;;;5026106;28;20387;-82
2022/05/09 14:30:21;;;;;;;;;;;;;;;;;;5029085;28;19919;-82
2022/05/09 14:32:48;;;;;;;;;;;;;;;;;;5027566;28;20374;-82
2022/05/09 14:35:14;;;;;;;;;;;;;;;;;;5033100;28;19952;-83
2022/05/09 14:37:40;;;;;;;;;;;;;;;;;;5027945;28;19928;-82
2022/05/09 14:40:06;;;;;;;;;;;;;;;;;;5030992;28;20370;-82
2022/05/09 14:42:33;;;;;;;;;;;;;;;;;;5031533;28;20452;-82
2022/05/09 14:44:59;;;;;;;;;;;;;;;;;;5028780;28;20176;-83
2022/05/09 14:47:25;;;;;;;;;;;;;;;;;;5027604;28;19921;-82
2022/05/09 14:49:51;;;;;;;;;;;;;;;;;;5028259;28;19929;-83
2022/05/09 14:52:17;;;;;;;;;;;;;;;;;;5029456;28;19925;-82
2022/05/09 14:54:43;;;;;;;;;;;;;;;;;;5032019;28;20301;-82
2022/05/09 14:57:27;;;;;;;;;;;;;;;;;;5027731;28;19974;-83
2022/05/09 14:59:53;;;;;;;;;;;;;;;;;;5028577;28;19917;-82
2022/05/09 15:02:19;;;;;;;;;;;;;;;;;;5025401;28;20008;-82
2022/05/09 15:04:45;;;;;;;;;;;;;;;;;;5025716;28;20437;-82
2022/05/09 15:07:11;;;;;;;;;;;;;;;;;;5029435;28;19948;-82
2022/05/09 15:09:37;;;;;;;;;;;;;;;;;;5029768;28;19925;-81
2022/05/09 15:12:04;;;;;;;;;;;;;;;;;;5024702;28;19929;-82
2022/05/09 15:14:30;;;;;;;;;;;;;;;;;;5022743;28;19921;-83
2022/05/09 15:16:56;;;;;;;;;;;;;;;;;;5031620;28;19972;-82